Archiv-/Tagesdaten

--Timestamp---	Temp	Chill	HIndex	Humid	Dewpt	Wind	HiWind	WindDir	Rain	Barom	        Solar	ET	UV
--------------	----	-----	------	-----	-----	----	------	-------	----	-----	        -----	--	--
20090328 00:05	6.2	6.2	6.2	84	3.7	2	5	247	0.00	1004.270	0	0.000	0
20090328 00:10	6.2	6.2	6.2	84	3.7	3	10	202	0.00	1004.236	0	0.000	0
20090328 00:15	6.2	6.2	6.2	84	3.7	2	6	202	0.00	1004.203	0	0.000	0
20090328 00:20	6.2	6.2	6.2	84	3.7	2	6	202	0.00	1004.067	0	0.000	0
20090328 00:25	6.2	6.2	6.2	84	3.7	0	2	202	0.00	1003.965	0	0.000	0
20090328 00:30	6.2	6.2	6.2	84	3.7	0	5	202	0.00	1004.033	0	0.000	0
20090328 00:35	6.2	6.2	6.2	84	3.7	0	2	202	0.00	1003.864	0	0.000	0
20090328 00:40	6.2	6.2	6.2	84	3.7	0	2	202	0.00	1003.830	0	0.000	0
20090328 00:45	6.2	6.2	6.2	84	3.7	0	3	202	0.00	1003.898	0	0.000	0
20090328 00:50	6.2	6.2	6.2	84	3.7	0	3	202	0.00	1003.661	0	0.000	0
20090328 00:55	6.2	6.2	6.2	84	3.7	0	3	202	0.00	1003.796	0	0.000	0
20090328 01:00	6.1	6.1	6.1	84	3.6	2	5	157	0.00	1003.695	0	0.000	0
20090328 01:05	6.1	6.1	6.1	85	3.7	0	3	157	0.00	1003.661	0	0.000	0
20090328 01:10	5.9	5.9	5.9	85	3.6	0	2	157	0.00	1003.762	0	0.000	0
20090328 01:15	5.9	5.9	5.9	86	3.8	0	2	157	0.00	1003.695	0	0.000	0
20090328 01:20	5.9	5.9	5.9	86	3.8	0	2	157	0.00	1003.627	0	0.000	0
20090328 01:25	5.9	5.9	5.9	86	3.7	0	3	157	0.00	1003.559	0	0.000	0
20090328 01:30	5.9	5.9	5.9	86	3.8	2	3	157	0.00	1003.525	0	0.000	0
20090328 01:35	5.9	5.9	5.9	86	3.8	2	5	157	0.00	1003.458	0	0.000	0
20090328 01:40	5.9	5.9	5.9	86	3.7	0	3	157	0.00	1003.491	0	0.000	0
20090328 01:45	5.8	5.8	5.8	86	3.7	2	6	157	0.00	1003.458	0	0.000	0
20090328 01:50	5.8	5.8	5.8	86	3.6	2	6	180	0.00	1003.525	0	0.000	0
20090328 01:55	5.6	5.6	5.6	87	3.6	2	6	135	0.00	1003.559	0	0.000	0
20090328 02:00	5.6	5.6	5.6	88	3.7	0	3	157	0.00	1003.559	0	0.000	0
20090328 02:05	5.5	5.5	5.5	88	3.7	0	5	157	0.00	1003.491	0	0.000	0
20090328 02:10	5.4	5.4	5.4	88	3.6	2	6	157	0.00	1003.288	0	0.000	0
20090328 02:15	5.4	5.4	5.4	88	3.6	2	3	157	0.00	1003.322	0	0.000	0
20090328 02:20	5.3	5.3	5.3	89	3.7	0	5	157	0.00	1003.220	0	0.000	0
20090328 02:25	5.3	5.3	5.3	88	3.5	0	3	157	0.00	1003.220	0	0.000	0
20090328 02:30	5.3	5.3	5.3	88	3.5	0	5	157	0.00	1003.187	0	0.000	0
20090328 02:35	5.2	5.2	5.2	89	3.5	0	3	157	0.00	1003.220	0	0.000	0
20090328 02:40	5.2	5.2	5.2	89	3.5	0	3	180	0.00	1003.187	0	0.000	0
20090328 02:45	5.2	5.2	5.2	89	3.5	0	3	180	0.00	1002.950	0	0.000	0
20090328 02:50	5.1	5.1	5.1	89	3.4	0	3	180	0.00	1002.916	0	0.000	0
20090328 02:55	5.0	5.0	5.0	94	4.1	2	5	180	0.00	1002.814	0	0.000	0
20090328 03:00	4.9	4.9	4.9	89	3.3	2	6	157	0.00	1002.882	0	0.000	0
20090328 03:05	4.8	4.8	4.8	89	3.2	2	5	135	0.00	1002.645	0	0.000	0
20090328 03:10	4.8	4.8	4.8	89	3.2	2	5	180	0.00	1002.543	0	0.000	0
20090328 03:15	4.7	4.7	4.7	89	3.1	2	6	135	0.00	1002.509	0	0.000	0
20090328 03:20	4.7	4.7	4.7	89	3.0	2	6	157	0.00	1002.306	0	0.000	0
20090328 03:25	4.6	4.6	4.6	89	2.9	2	10	135	0.00	1002.171	0	0.000	0
20090328 03:30	4.4	4.4	4.4	89	2.8	2	8	135	0.00	1001.967	0	0.000	0
20090328 03:35	4.4	4.4	4.4	89	2.7	2	6	135	0.00	1002.035	0	0.000	0
20090328 03:40	4.3	4.3	4.3	90	2.8	0	3	157	0.00	1002.137	0	0.000	0
20090328 03:45	4.3	4.3	4.3	90	2.8	2	5	157	0.00	1002.103	0	0.000	0
20090328 03:50	4.2	4.2	4.2	90	2.7	2	6	180	0.00	1001.900	0	0.000	0
20090328 03:55	4.2	4.2	4.2	90	2.7	2	5	180	0.00	1001.900	0	0.000	0
20090328 04:00	4.1	4.1	4.1	90	2.6	2	5	157	0.00	1001.764	0	0.000	0
20090328 04:05	4.1	4.1	4.1	90	2.6	2	6	157	0.00	1001.798	0	0.000	0
20090328 04:10	4.0	4.0	4.0	90	2.5	3	8	157	0.00	1001.629	0	0.000	0
20090328 04:15	3.9	3.9	3.9	90	2.5	2	6	157	0.00	1001.629	0	0.000	0
20090328 04:20	3.9	3.9	3.9	90	2.4	3	10	135	0.00	1001.493	0	0.000	0
20090328 04:25	3.8	3.8	3.8	90	2.3	2	6	157	0.00	1001.426	0	0.000	0
20090328 04:30	3.7	3.7	3.7	90	2.2	3	8	157	0.00	1001.527	0	0.000	0
20090328 04:35	3.7	3.7	3.7	91	2.4	2	6	180	0.00	1001.324	0	0.000	0
20090328 04:40	3.7	3.7	3.7	91	2.3	2	5	180	0.00	1001.290	0	0.000	0
20090328 04:45	3.6	3.6	3.6	91	2.2	2	5	180	0.00	1001.392	0	0.000	0
20090328 04:50	3.6	3.6	3.6	91	2.2	0	3	180	0.00	1001.426	0	0.000	0
20090328 04:55	3.6	3.6	3.6	91	2.2	0	3	180	0.00	1001.392	0	0.000	0
20090328 05:00	3.6	3.6	3.6	91	2.2	0	5	180	0.00	1001.189	0	0.000	0
20090328 05:05	3.6	3.6	3.6	91	2.2	0	0	180	0.00	1001.222	0	0.000	0
20090328 05:10	3.4	3.4	3.4	90	2.0	3	6	337	0.00	1001.358	0	0.000	0
20090328 05:15	3.3	3.3	3.3	91	2.0	3	8	0	0.00	1001.189	0	0.000	0
20090328 05:20	3.4	3.4	3.4	91	2.1	2	3	0	0.00	1001.121	0	0.000	0
20090328 05:25	3.4	3.4	3.4	92	2.3	2	3	0	0.00	1000.952	0	0.000	0
20090328 05:30	3.5	3.5	3.5	92	2.3	0	3	0	0.00	1000.918	0	0.000	0
20090328 05:35	3.5	3.5	3.5	92	2.3	0	0	0	0.00	1000.918	0	0.000	0
20090328 05:40	3.6	3.6	3.6	92	2.4	0	2	0	0.00	1000.918	0	0.000	0
20090328 05:45	3.6	3.6	3.6	92	2.4	0	5	135	0.00	1000.850	0	0.000	0
20090328 05:50	3.6	3.6	3.6	92	2.4	3	6	135	0.00	1000.715	0	0.000	0
20090328 05:55	3.7	3.7	3.7	92	2.5	2	5	135	0.00	1000.579	0	0.000	0
20090328 06:00	3.7	3.7	3.7	92	2.5	0	2	135	0.00	1000.545	0	0.000	0
20090328 06:05	3.7	3.7	3.7	92	2.5	0	3	135	0.00	1000.952	3	0.000	0
20090328 06:10	3.6	3.6	3.6	92	2.4	0	2	135	0.00	1000.816	7	0.000	0
20090328 06:15	3.5	3.5	3.5	91	2.2	2	5	135	0.00	1000.816	11	0.000	0
20090328 06:20	3.4	3.4	3.4	91	2.1	2	6	135	0.00	1000.816	15	0.000	0
20090328 06:25	3.4	3.4	3.4	91	2.1	2	6	135	0.00	1000.850	23	0.000	0
20090328 06:30	3.4	3.4	3.4	91	2.1	2	5	135	0.00	1000.816	28	0.000	0
20090328 06:35	3.4	3.4	3.4	91	2.1	2	6	135	0.00	1000.816	30	0.000	0
20090328 06:40	3.4	3.4	3.4	91	2.1	2	8	135	0.00	1000.850	33	0.000	0
20090328 06:45	3.3	3.3	3.3	91	2.0	2	5	90	0.00	1000.816	36	0.000	0
20090328 06:50	3.3	3.3	3.3	91	2.0	3	6	90	0.00	1000.782	39	0.000	0
20090328 06:55	3.2	3.2	3.2	91	1.9	3	6	45	0.00	1000.715	40	0.000	0
20090328 07:00	3.1	3.1	3.1	91	1.7	3	5	45	0.00	1000.715	42	0.000	0
20090328 07:05	2.9	2.9	2.9	91	1.6	3	6	45	0.00	1000.613	48	0.000	0
20090328 07:10	2.8	2.8	2.8	92	1.7	3	5	45	0.00	1000.681	67	0.000	0
20090328 07:15	2.8	2.8	2.8	92	1.7	0	3	45	0.00	1000.681	76	0.000	0
20090328 07:20	3.0	3.0	3.0	92	1.8	3	5	45	0.00	1000.613	121	0.000	0
20090328 07:25	3.3	3.3	3.3	93	2.3	3	6	45	0.00	1000.613	172	0.000	0
20090328 07:30	3.5	3.5	3.5	93	2.5	5	10	45	0.00	1000.613	129	0.000	0
20090328 07:35	3.5	1.9	3.5	92	2.3	6	10	67	0.00	1000.444	104	0.000	0
20090328 07:40	3.5	3.5	3.5	92	2.3	5	8	67	0.00	1000.444	86	0.000	0
20090328 07:45	3.6	3.6	3.6	92	2.4	5	8	67	0.00	1000.444	66	0.000	0
20090328 07:50	3.7	3.7	3.7	92	2.5	5	8	112	0.00	1000.342	56	0.000	0
20090328 07:55	3.9	3.9	3.9	92	2.7	5	10	67	0.00	1000.071	51	0.000	0
20090328 08:00	4.2	4.2	4.2	91	2.8	5	8	67	0.00	1000.173	49	0.020	0
20090328 08:05	4.4	4.4	4.4	90	2.9	3	10	90	0.00	1000.037	47	0.000	0
20090328 08:10	4.7	4.7	4.7	90	3.2	3	10	135	0.00	999.969	47	0.000	0
20090328 08:15	5.0	5.0	5.0	89	3.3	3	8	135	0.00	999.732	46	0.000	0
20090328 08:20	5.2	5.2	5.2	88	3.3	3	8	112	0.00	999.699	46	0.000	0
20090328 08:25	5.3	5.3	5.3	88	3.5	5	11	112	0.00	999.495	48	0.000	0
20090328 08:30	5.4	5.4	5.4	88	3.6	5	10	67	0.00	999.428	51	0.000	0
20090328 08:35	5.3	5.3	5.3	89	3.7	3	10	67	0.00	999.428	53	0.000	0
20090328 08:40	5.2	5.2	5.2	89	3.6	5	10	67	0.00	999.394	56	0.000	1
20090328 08:45	5.4	5.4	5.4	89	3.8	5	10	135	0.00	999.224	54	0.000	0
20090328 08:50	5.6	5.6	5.6	88	3.7	5	10	112	0.00	999.123	51	0.000	0
20090328 08:55	5.8	4.1	5.8	87	3.8	8	14	112	0.00	999.123	52	0.000	0
20090328 09:00	5.9	4.2	5.9	87	3.9	8	14	135	0.00	998.784	52	0.020	0
20090328 09:05	6.1	4.8	6.1	86	3.9	6	13	135	0.00	998.954	55	0.000	1
20090328 09:10	6.2	6.2	6.2	86	4.1	3	10	135	0.00	998.920	56	0.000	1
20090328 09:15	6.3	6.3	6.3	85	4.0	5	8	67	0.00	998.920	69	0.000	1
20090328 09:20	6.5	6.5	6.5	86	4.3	5	10	67	0.00	998.784	76	0.000	1
20090328 09:25	6.7	5.5	6.7	85	4.3	6	11	67	0.00	998.683	76	0.000	1
20090328 09:30	6.8	5.7	6.8	84	4.3	6	10	67	0.00	998.615	73	0.000	1
20090328 09:35	6.8	5.7	6.8	85	4.5	6	11	67	0.00	998.615	89	0.000	1
20090328 09:40	7.1	6.0	7.1	85	4.7	6	10	45	0.00	998.683	85	0.000	1
20090328 09:45	7.2	6.2	7.2	84	4.7	6	10	45	0.00	998.750	84	0.000	2
20090328 09:50	7.3	7.3	7.3	83	4.6	5	10	67	0.00	998.784	83	0.000	2
20090328 09:55	7.4	7.4	7.4	83	4.7	5	10	22	0.00	998.717	86	0.000	2
20090328 10:00	7.6	7.6	7.6	84	5.0	3	8	45	0.00	998.649	117	0.040	2
20090328 10:05	7.7	7.7	7.7	84	5.2	5	10	45	0.00	998.581	131	0.000	2
20090328 10:10	7.7	7.7	7.7	83	5.0	5	14	67	0.00	998.581	107	0.000	2
20090328 10:15	7.8	7.8	7.8	83	5.1	5	11	22	0.00	998.480	95	0.000	2
20090328 10:20	7.9	7.9	7.9	82	5.0	5	10	45	0.00	998.480	108	0.000	2
20090328 10:25	8.0	7.1	8.0	82	5.1	6	13	22	0.00	998.412	439	0.000	2
20090328 10:30	8.1	8.1	8.1	81	5.0	5	11	22	0.00	998.513	566	0.000	2
20090328 10:35	8.2	8.2	8.2	83	5.5	5	16	22	0.00	998.412	593	0.000	3
20090328 10:40	8.4	7.6	8.4	80	5.2	6	16	45	0.00	998.513	617	0.000	3
20090328 10:45	8.6	8.6	8.6	81	5.5	5	10	67	0.00	998.480	635	0.000	3
20090328 10:50	8.7	8.7	8.7	80	5.5	3	10	67	0.00	998.480	633	0.000	3
20090328 10:55	9.0	9.0	9.0	81	5.9	3	11	22	0.00	998.513	650	0.000	3
20090328 11:00	9.2	9.2	9.2	79	5.8	5	8	315	0.00	998.547	654	0.160	3
20090328 11:05	9.3	9.3	9.3	79	5.9	5	10	45	0.00	998.310	657	0.000	3
20090328 11:10	9.5	9.5	9.5	77	5.7	2	6	22	0.00	998.378	650	0.000	3
20090328 11:15	9.6	9.6	9.6	77	5.7	5	10	22	0.00	998.344	667	0.000	4
20090328 11:20	9.6	9.6	9.6	77	5.7	3	8	45	0.00	998.344	677	0.000	4
20090328 11:25	9.6	9.6	9.6	77	5.7	3	8	22	0.00	998.378	681	0.000	4
20090328 11:30	9.6	9.6	9.6	75	5.3	2	6	22	0.00	998.446	689	0.000	4
20090328 11:35	9.7	9.7	9.7	76	5.7	3	8	45	0.00	998.480	690	0.000	4
20090328 11:40	10.1	10.1	10.1	77	6.3	2	5	315	0.00	998.547	692	0.000	4
20090328 11:45	10.3	10.3	10.3	73	5.7	2	10	22	0.00	998.378	695	0.000	4
20090328 11:50	10.6	10.6	10.6	73	5.9	5	11	22	0.00	998.412	697	0.000	4
20090328 11:55	10.7	10.7	10.7	71	5.7	3	10	315	0.00	998.378	701	0.000	4
20090328 12:00	10.9	10.9	10.9	70	5.6	2	10	315	0.00	998.446	704	0.260	4
20090328 12:05	11.2	11.2	11.2	68	5.5	2	6	315	0.00	998.547	702	0.000	4
20090328 12:10	11.3	11.3	11.3	67	5.4	3	6	22	0.00	998.547	704	0.000	4
20090328 12:15	10.9	10.9	10.9	71	5.8	2	8	22	0.00	998.547	701	0.000	4
20090328 12:20	11.1	11.1	11.1	69	5.6	5	8	292	0.00	998.615	705	0.000	4
20090328 12:25	11.2	11.2	11.2	68	5.5	0	5	22	0.00	998.310	705	0.000	4
20090328 12:30	11.4	11.4	11.4	68	5.7	2	6	22	0.00	998.344	703	0.000	4
20090328 12:35	11.7	11.7	11.7	67	5.7	2	5	22	0.00	998.378	705	0.000	4
20090328 12:40	11.8	11.8	11.8	67	5.9	5	10	22	0.00	998.378	702	0.000	4
20090328 12:45	11.7	11.7	11.7	67	5.7	5	10	22	0.00	998.344	702	0.000	4
20090328 12:50	11.9	11.9	11.9	67	6.0	3	10	22	0.00	998.276	702	0.000	4
20090328 12:55	12.3	12.3	12.3	67	6.3	2	8	315	0.00	998.344	702	0.000	4
20090328 13:00	12.6	12.6	12.6	66	6.4	3	6	22	0.00	998.310	701	0.280	4
20090328 13:05	12.6	12.6	12.6	67	6.6	3	8	247	0.00	998.480	663	0.000	4
20090328 13:10	12.8	12.8	12.8	64	6.2	3	11	292	0.00	998.412	614	0.000	4
20090328 13:15	12.7	12.7	12.7	65	6.3	3	6	270	0.00	998.480	659	0.000	4
20090328 13:20	12.7	12.7	12.7	66	6.5	5	11	292	0.00	998.513	667	0.000	4
20090328 13:25	12.8	12.8	12.8	64	6.2	5	16	22	0.00	998.480	728	0.000	4
20090328 13:30	13.3	13.3	13.3	64	6.6	6	14	22	0.00	998.378	664	0.000	4
20090328 13:35	13.4	13.4	13.4	61	6.1	5	10	315	0.00	998.412	690	0.000	4
20090328 13:40	13.7	13.7	13.7	63	6.8	6	16	292	0.00	998.209	720	0.000	4
20090328 13:45	13.9	13.9	13.9	60	6.3	8	16	292	0.00	998.378	750	0.000	4
20090328 13:50	14.2	14.2	14.2	62	7.0	6	14	292	0.00	998.412	825	0.000	4
20090328 13:55	14.2	14.2	14.2	58	6.1	8	21	292	0.00	998.310	343	0.000	2
20090328 14:00	14.1	14.1	14.1	61	6.7	6	16	292	0.00	998.107	630	0.280	3
20090328 14:05	14.0	14.0	14.0	61	6.6	6	14	22	0.00	998.310	738	0.000	3
20090328 14:10	14.0	14.0	14.0	62	6.8	5	13	337	0.00	998.310	447	0.000	2
20090328 14:15	13.9	13.9	13.9	61	6.5	5	11	22	0.00	998.446	298	0.000	2
20090328 14:20	13.8	13.8	13.8	62	6.7	6	21	315	0.00	998.581	235	0.000	2
20090328 14:25	13.7	13.7	13.7	62	6.5	5	11	315	0.00	998.649	240	0.000	2
20090328 14:30	13.5	13.5	13.5	61	6.1	10	24	315	0.00	998.886	432	0.000	2
20090328 14:35	13.5	13.5	13.5	62	6.4	11	21	292	0.00	998.954	612	0.000	2
20090328 14:40	13.3	13.3	13.3	62	6.2	18	26	292	0.00	999.021	256	0.000	2
20090328 14:45	12.9	12.9	12.9	62	5.8	16	45	315	0.00	999.021	168	0.000	1
20090328 14:50	12.1	12.1	12.1	64	5.5	26	40	315	0.00	999.224	103	0.000	1
20090328 14:55	11.4	11.4	11.4	65	5.0	24	35	315	0.00	999.428	122	0.000	1
20090328 15:00	11.0	11.0	11.0	68	5.3	23	39	315	0.00	999.597	157	0.180	1
20090328 15:05	10.8	10.8	10.8	68	5.1	21	31	315	0.00	999.732	123	0.000	1
20090328 15:10	10.4	10.4	10.4	68	4.8	19	37	292	0.00	999.834	136	0.000	1
20090328 15:15	10.3	10.3	10.3	69	4.9	14	35	292	0.00	1000.003	117	0.000	1
20090328 15:20	10.2	10.2	10.2	70	5.0	18	32	292	0.00	1000.037	91	0.000	0
20090328 15:25	10.0	10.0	10.0	71	5.0	19	32	315	0.00	1000.037	151	0.000	1
20090328 15:30	9.9	7.0	9.9	71	4.9	23	37	315	0.00	1000.139	156	0.000	1
20090328 15:35	9.5	6.1	9.5	72	4.7	27	40	315	0.00	1000.308	154	0.000	1
20090328 15:40	9.2	6.2	9.2	74	4.8	23	35	315	0.00	1000.579	126	0.000	1
20090328 15:45	9.0	6.0	9.0	75	4.8	21	31	315	0.00	1000.850	73	0.000	0
20090328 15:50	8.8	5.8	8.8	76	4.8	21	34	315	0.00	1001.087	37	0.000	0
20090328 15:55	8.5	5.0	8.5	77	4.7	26	39	315	0.00	1001.189	31	0.000	0
20090328 16:00	8.2	4.8	8.2	79	4.7	23	39	292	0.00	1001.358	23	0.080	0
20090328 16:05	7.8	4.7	7.8	82	5.0	19	32	292	0.00	1001.358	35	0.000	0
20090328 16:10	7.7	5.1	7.7	84	5.1	14	27	315	0.00	1001.629	16	0.000	0
20090328 16:15	7.4	4.8	7.4	85	5.0	14	27	292	0.00	1001.730	28	0.000	0
20090328 16:20	7.2	4.4	7.2	86	5.0	16	31	270	0.00	1001.967	12	0.000	0
20090328 16:25	7.0	3.9	7.0	86	4.8	18	31	292	0.20	1001.934	13	0.000	0
20090328 16:30	6.9	4.2	6.9	86	4.7	14	29	292	0.00	1002.069	11	0.000	0
20090328 16:35	6.7	3.3	6.7	86	4.5	19	34	292	0.00	1002.171	12	0.000	0
20090328 16:40	6.6	3.1	6.6	87	4.5	19	40	292	0.20	1002.408	9	0.000	0
20090328 16:45	6.4	3.4	6.4	87	4.4	16	29	315	0.00	1002.475	14	0.000	0
20090328 16:50	6.3	3.5	6.3	87	4.3	14	29	292	0.00	1002.679	17	0.000	0
20090328 16:55	6.3	3.4	6.3	88	4.4	14	27	315	0.20	1002.848	21	0.000	0
20090328 17:00	6.2	3.9	6.2	88	4.4	11	23	292	0.00	1002.983	8	0.020	0
20090328 17:05	6.2	2.8	6.2	88	4.3	18	32	315	0.00	1002.950	7	0.000	0
20090328 17:10	6.1	3.8	6.1	88	4.3	11	29	315	0.00	1003.017	9	0.000	0
20090328 17:15	6.1	2.7	6.1	88	4.2	18	34	292	0.00	1002.882	8	0.000	0
20090328 17:20	6.1	3.4	6.1	88	4.2	13	23	270	0.00	1002.950	7	0.000	0
20090328 17:25	6.0	3.1	6.0	87	4.0	14	26	292	0.00	1003.017	4	0.000	0
20090328 17:30	5.9	3.0	5.9	87	3.9	14	26	270	0.00	1003.085	6	0.000	0
20090328 17:35	5.9	3.3	5.9	87	3.9	13	24	270	0.00	1003.390	5	0.000	0
20090328 17:40	5.9	3.5	5.9	87	3.9	11	21	270	0.00	1003.491	10	0.000	0
20090328 17:45	5.8	3.7	5.8	87	3.8	10	18	270	0.00	1003.593	9	0.000	0
20090328 17:50	5.8	3.4	5.8	87	3.8	11	19	270	0.00	1003.864	7	0.000	0
20090328 17:55	5.7	3.0	5.7	86	3.6	13	23	270	0.00	1004.033	6	0.000	0
20090328 18:00	5.7	3.2	5.7	86	3.5	11	23	270	0.00	1004.135	6	0.020	0
20090328 18:05	5.7	3.9	5.7	87	3.7	8	19	270	0.00	1004.169	1	0.000	0
20090328 18:10	5.6	3.1	5.6	86	3.5	11	18	270	0.00	1004.101	5	0.000	0
20090328 18:15	5.6	3.1	5.6	86	3.4	11	23	270	0.00	1004.135	6	0.000	0
20090328 18:20	5.5	3.0	5.5	86	3.3	11	19	270	0.00	1003.898	8	0.000	0
20090328 18:25	5.4	2.4	5.4	86	3.3	14	23	270	0.00	1004.203	7	0.000	0
20090328 18:30	5.4	3.2	5.4	86	3.2	10	16	270	0.00	1004.507	1	0.000	0
20090328 18:35	5.3	3.5	5.3	87	3.3	8	19	247	0.00	1004.677	0	0.000	0
20090328 18:40	5.3	3.5	5.3	87	3.3	8	18	270	0.00	1004.643	0	0.000	0
20090328 18:45	5.3	3.1	5.3	86	3.2	10	19	270	0.00	1004.744	0	0.000	0
20090328 18:50	5.3	3.1	5.3	86	3.2	10	19	270	0.00	1004.778	0	0.000	0
20090328 18:55	5.3	3.5	5.3	86	3.2	8	16	270	0.00	1004.812	0	0.000	0
20090328 19:00	5.4	4.0	5.4	85	3.1	6	14	270	0.00	1005.015	0	0.020	0
20090328 19:05	5.4	3.2	5.4	85	3.1	10	18	270	0.00	1005.015	0	0.000	0
20090328 19:10	5.4	3.7	5.4	85	3.1	8	14	270	0.00	1005.117	0	0.000	0
20090328 19:15	5.4	3.7	5.4	85	3.1	8	16	270	0.00	1005.083	0	0.000	0
20090328 19:20	5.4	3.7	5.4	85	3.1	8	16	270	0.00	1005.117	0	0.000	0
20090328 19:25	5.4	4.1	5.4	85	3.1	6	14	270	0.00	1005.083	0	0.000	0
20090328 19:30	5.4	4.1	5.4	86	3.3	6	11	270	0.00	1005.151	0	0.000	0
20090328 19:35	5.4	5.4	5.4	85	3.1	5	10	247	0.00	1005.286	0	0.000	0
20090328 19:40	5.4	5.4	5.4	86	3.3	3	6	247	0.00	1005.557	0	0.000	0
20090328 19:45	5.4	5.4	5.4	86	3.3	5	10	225	0.00	1005.760	0	0.000	0
20090328 19:50	5.4	4.1	5.4	85	3.1	6	11	247	0.00	1005.760	0	0.000	0
20090328 19:55	5.4	5.4	5.4	85	3.1	5	8	247	0.00	1005.896	0	0.000	0
20090328 20:00	5.4	5.4	5.4	85	3.1	5	10	270	0.00	1005.997	0	0.020	0
20090328 20:05	5.4	5.4	5.4	85	3.1	5	10	247	0.00	1005.828	0	0.000	0
20090328 20:10	5.4	4.1	5.4	85	3.1	6	11	270	0.00	1005.828	0	0.000	0
20090328 20:15	5.4	5.4	5.4	85	3.1	5	11	247	0.00	1005.794	0	0.000	0
20090328 20:20	5.4	5.4	5.4	85	3.1	3	8	225	0.00	1005.828	0	0.000	0
20090328 20:25	5.4	5.4	5.4	86	3.2	5	11	270	0.00	1005.896	0	0.000	0
20090328 20:30	5.3	5.3	5.3	86	3.2	5	10	247	0.00	1005.963	0	0.000	0
20090328 20:35	5.3	5.3	5.3	87	3.3	5	10	247	0.00	1005.997	0	0.000	0
20090328 20:40	5.2	3.8	5.2	86	3.0	6	11	270	0.00	1005.997	0	0.000	0
20090328 20:45	5.1	3.7	5.1	86	3.0	6	11	247	0.00	1006.099	0	0.000	0
20090328 20:50	5.1	3.7	5.1	86	3.0	6	14	270	0.00	1006.133	0	0.000	0
20090328 20:55	5.1	5.1	5.1	86	3.0	5	11	247	0.00	1006.201	0	0.000	0
20090328 21:00	5.1	3.3	5.1	85	2.8	8	16	270	0.00	1006.167	0	0.020	0
20090328 21:05	5.1	3.7	5.1	85	2.7	6	11	247	0.00	1006.065	0	0.000	0
20090328 21:10	5.1	5.1	5.1	85	2.7	5	10	270	0.00	1006.234	0	0.000	0
20090328 21:15	5.1	5.1	5.1	86	3.0	5	8	247	0.00	1006.438	0	0.000	0
20090328 21:20	5.1	5.1	5.1	86	2.9	5	8	247	0.00	1006.404	0	0.000	0
20090328 21:25	5.1	5.1	5.1	86	2.9	5	10	270	0.00	1006.438	0	0.000	0
20090328 21:30	5.1	5.1	5.1	85	2.7	5	10	247	0.00	1006.505	0	0.000	0
20090328 21:35	5.1	5.1	5.1	85	2.7	3	8	270	0.00	1006.573	0	0.000	0
20090328 21:40	5.0	5.0	5.0	85	2.7	5	10	270	0.00	1006.641	0	0.000	0
20090328 21:45	5.0	5.0	5.0	85	2.7	5	10	270	0.00	1006.742	0	0.000	0
20090328 21:50	4.9	3.5	4.9	84	2.5	6	18	270	0.00	1006.675	0	0.000	0
20090328 21:55	4.8	2.9	4.8	83	2.2	8	14	247	0.00	1006.675	0	0.000	0
20090328 22:00	4.8	4.8	4.8	84	2.4	5	8	247	0.00	1006.708	0	0.020	0
20090328 22:05	4.8	4.8	4.8	84	2.3	5	11	270	0.00	1006.471	0	0.000	0
20090328 22:10	4.7	3.3	4.7	84	2.3	6	14	247	0.00	1006.675	0	0.000	0
20090328 22:15	4.7	4.7	4.7	83	2.1	5	8	247	0.00	1006.742	0	0.000	0
20090328 22:20	4.7	4.7	4.7	84	2.2	5	8	247	0.00	1006.776	0	0.000	0
20090328 22:25	4.7	4.7	4.7	84	2.2	3	8	270	0.00	1006.776	0	0.000	0
20090328 22:30	4.6	4.6	4.6	84	2.1	5	8	225	0.00	1006.810	0	0.000	0
20090328 22:35	4.6	4.6	4.6	84	2.1	5	8	247	0.00	1006.844	0	0.000	0
20090328 22:40	4.6	4.6	4.6	84	2.1	3	6	247	0.00	1006.844	0	0.000	0
20090328 22:45	4.5	4.5	4.5	85	2.2	3	8	270	0.00	1006.810	0	0.000	0
20090328 22:50	4.5	4.5	4.5	84	2.0	5	10	225	0.00	1006.742	0	0.000	0
20090328 22:55	4.4	4.4	4.4	85	2.1	2	6	270	0.00	1006.810	0	0.000	0
20090328 23:00	4.4	4.4	4.4	85	2.1	3	6	225	0.00	1006.844	0	0.000	0
20090328 23:05	4.4	4.4	4.4	85	2.1	2	6	270	0.00	1006.539	0	0.000	0
20090328 23:10	4.4	4.4	4.4	85	2.1	2	5	270	0.00	1006.539	0	0.000	0
20090328 23:15	4.4	4.4	4.4	85	2.1	2	6	247	0.00	1006.607	0	0.000	0
20090328 23:20	4.3	4.3	4.3	85	2.0	2	6	270	0.00	1006.742	0	0.000	0
20090328 23:25	4.3	4.3	4.3	85	2.0	2	6	270	0.00	1006.810	0	0.000	0
20090328 23:30	4.3	4.3	4.3	85	2.0	3	8	225	0.00	1006.844	0	0.000	0
20090328 23:35	4.3	4.3	4.3	85	2.0	3	10	247	0.00	1006.878	0	0.000	0
20090328 23:40	4.3	4.3	4.3	85	2.0	3	6	247	0.00	1006.945	0	0.000	0
20090328 23:45	4.3	4.3	4.3	85	2.0	3	8	247	0.00	1006.945	0	0.000	0
20090328 23:50	4.3	4.3	4.3	85	2.0	5	10	270	0.00	1006.844	0	0.000	0
20090328 23:55	4.3	4.3	4.3	85	2.0	3	8	247	0.00	1006.878	0	0.000	0
20090328 24:00	4.2	4.2	4.2	85	1.9	3	6	247	0.00	1006.878	0	0.000	0
20090328 24:00	4.2	4.2	4.2	85	1.9	3	6	247	0.00	1006.878	0	0.000	0



Please note the license to use and transfer of this data:
http://creativecommons.org/licenses/by-nc-sa/3.0/deed.en

Bitte beachten sie die Lizenz zur Verwertung und Weitergabe der Daten:
http://creativecommons.org/licenses/by-nc-sa/3.0/deed.de

zurück zur Übersicht der Archivdaten (Monats und Tagesdaten)

Cookies helfen bei der Bereitstellung von Inhalten. Durch die Nutzung dieser Seiten erklärst du dich damit einverstanden, dass Cookies auf deinem Rechner gespeichert werden. Weitere Information